Time;durP1;ratioP1;P1;durP2;ratioP2;P2;SDS_P1;SDS_P2;PMS_P1;PMS_P2;Temp;Humidity;BMP_temperature;BMP_pressure;BME280_temperature;BME280_humidity;BME280_pressure;Samples;Min_cycle;Max_cycle;Signal;HPM_P1;HPM_P2
2022/03/14 00:00:41;;;;;;;;;;;10.70;13.00;;;;;;5134102;27;20282;-71
2022/03/14 00:03:06;;;;;;;;;;;10.70;13.10;;;;;;5116377;27;20416;-71
2022/03/14 00:05:32;;;;;;;;;;;10.70;14.30;;;;;;5133949;27;19915;-71
2022/03/14 00:07:59;;;;;;;;;;;10.60;14.10;;;;;;5134810;27;19960;-72
2022/03/14 00:10:24;;;;;;;;;;;;;;;;;;5115733;27;19907;-77
2022/03/14 00:12:57;;;;;;;;;;;10.70;14.30;;;;;;5134362;27;20417;-71
2022/03/14 00:15:23;;;;;;;;;;;;;;;;;;5134306;27;20072;-76
2022/03/14 00:17:49;;;;;;;;;;;10.70;16.20;;;;;;5133882;27;19954;-72
2022/03/14 00:20:15;;;;;;;;;;;10.60;17.50;;;;;;5116001;27;20420;-71
2022/03/14 00:22:41;;;;;;;;;;;10.60;18.00;;;;;;5133958;27;19993;-72
2022/03/14 00:25:07;;;;;;;;;;;10.50;18.30;;;;;;5115602;27;19919;-72
2022/03/14 00:27:35;;;;;;;;;;;10.50;20.50;;;;;;5115210;27;19908;-72
2022/03/14 00:30:09;;;;;;;;;;;10.20;25.80;;;;;;5133910;27;20368;-72
2022/03/14 00:32:35;;;;;;;;;;;10.50;25.00;;;;;;5114887;27;19908;-71
2022/03/14 00:35:01;;;;;;;;;;;;;;;;;;5115807;27;19973;-70
2022/03/14 00:37:27;;;;;;;;;;;;;;;;;;5115173;27;19999;-77
2022/03/14 00:39:53;;;;;;;;;;;10.60;22.80;;;;;;5115657;27;19915;-71
2022/03/14 00:42:21;;;;;;;;;;;10.60;23.00;;;;;;5134111;27;19915;-71
2022/03/14 00:44:47;;;;;;;;;;;10.50;24.40;;;;;;5133241;27;19903;-72
2022/03/14 00:47:13;;;;;;;;;;;10.30;27.80;;;;;;5133933;27;19911;-72
2022/03/14 00:49:38;;;;;;;;;;;10.20;32.90;;;;;;5132885;27;19960;-72
2022/03/14 00:52:04;;;;;;;;;;;10.30;33.40;;;;;;5133904;27;19908;-72
2022/03/14 00:54:29;;;;;;;;;;;10.30;33.40;;;;;;5133013;27;19907;-72
2022/03/14 00:56:55;;;;;;;;;;;10.30;34.20;;;;;;5133825;27;19942;-72
2022/03/14 00:59:21;;;;;;;;;;;10.30;34.90;;;;;;5133885;27;19947;-72
2022/03/14 01:01:46;;;;;;;;;;;10.30;36.10;;;;;;5114572;27;20462;-71
2022/03/14 01:04:12;;;;;;;;;;;10.40;35.00;;;;;;5133658;27;19908;-71
2022/03/14 01:06:38;;;;;;;;;;;10.40;36.30;;;;;;5114443;27;19940;-71
2022/03/14 01:09:03;;;;;;;;;;;10.40;36.70;;;;;;5133677;27;19953;-72
2022/03/14 01:11:29;;;;;;;;;;;;;;;;;;5114584;27;20348;-77
2022/03/14 01:13:55;;;;;;;;;;;10.50;34.70;;;;;;5133458;27;20283;-72
2022/03/14 01:16:21;;;;;;;;;;;10.50;35.60;;;;;;5133528;27;19914;-71
2022/03/14 01:18:46;;;;;;;;;;;10.50;34.60;;;;;;5132806;27;20456;-71
2022/03/14 01:21:12;;;;;;;;;;;10.50;35.10;;;;;;5133545;27;20268;-71
2022/03/14 01:23:37;;;;;;;;;;;10.60;33.60;;;;;;5132619;27;19918;-72
2022/03/14 01:26:04;;;;;;;;;;;10.50;33.60;;;;;;5133168;27;20018;-71
2022/03/14 01:28:30;;;;;;;;;;;;;;;;;;5132955;27;20003;-77
2022/03/14 01:30:57;;;;;;;;;;;10.50;34.00;;;;;;5133487;28;20368;-71
2022/03/14 01:33:23;;;;;;;;;;;10.60;36.00;;;;;;5133350;28;19951;-72
2022/03/14 01:35:48;;;;;;;;;;;10.50;34.70;;;;;;5114139;28;20485;-72
2022/03/14 01:38:14;;;;;;;;;;;10.40;36.70;;;;;;5133238;28;19976;-71
2022/03/14 01:40:39;;;;;;;;;;;10.50;37.10;;;;;;5132546;28;19907;-71
2022/03/14 01:43:05;;;;;;;;;;;10.50;37.00;;;;;;5136596;27;20002;-71
2022/03/14 01:45:31;;;;;;;;;;;;;;;;;;5136985;27;19964;-76
2022/03/14 01:47:56;;;;;;;;;;;10.50;37.50;;;;;;5137136;27;19907;-71
2022/03/14 01:50:22;;;;;;;;;;;10.50;36.80;;;;;;5119262;27;19915;-71
2022/03/14 01:52:48;;;;;;;;;;;10.50;38.30;;;;;;5136623;27;19907;-71
2022/03/14 01:55:14;;;;;;;;;;;10.50;39.40;;;;;;5118841;27;20355;-71
2022/03/14 01:57:40;;;;;;;;;;;10.50;39.40;;;;;;5136466;27;19929;-71
2022/03/14 02:00:07;;;;;;;;;;;10.50;39.00;;;;;;5137209;27;19907;-71
2022/03/14 02:02:33;;;;;;;;;;;;;;;;;;5136513;27;19915;-76
2022/03/14 02:04:58;;;;;;;;;;;10.50;38.90;;;;;;5137086;27;20327;-71
2022/03/14 02:07:24;;;;;;;;;;;10.50;38.10;;;;;;5137071;27;19912;-71
2022/03/14 02:09:50;;;;;;;;;;;10.40;37.80;;;;;;5136235;27;19968;-70
2022/03/14 02:12:16;;;;;;;;;;;10.50;38.70;;;;;;5136852;27;19990;-71
2022/03/14 02:14:41;;;;;;;;;;;10.40;40.90;;;;;;5136130;27;19912;-71
2022/03/14 02:17:12;;;;;;;;;;;10.50;40.70;;;;;;5136836;27;19956;-71
2022/03/14 02:19:38;;;;;;;;;;;10.30;44.50;;;;;;5135880;27;19919;-71
2022/03/14 02:22:04;;;;;;;;;;;10.30;45.90;;;;;;5137050;27;20267;-70
2022/03/14 02:24:30;;;;;;;;;;;;;;;;;;5118418;27;19908;-76
2022/03/14 02:26:56;;;;;;;;;;;10.10;54.40;;;;;;5117498;27;19920;-71
2022/03/14 02:29:23;;;;;;;;;;;10.00;56.80;;;;;;5118442;27;19911;-71
2022/03/14 02:31:49;;;;;;;;;;;9.90;58.80;;;;;;5135816;27;19908;-71
2022/03/14 02:34:14;;;;;;;;;;;10.00;57.60;;;;;;5136730;27;19953;-71
2022/03/14 02:36:40;;;;;;;;;;;10.00;57.90;;;;;;5117371;27;19999;-72
2022/03/14 02:39:06;;;;;;;;;;;10.00;58.20;;;;;;5136740;27;20006;-71
2022/03/14 02:41:32;;;;;;;;;;;;;;;;;;5117810;27;20282;-76
2022/03/14 02:43:58;;;;;;;;;;;10.00;59.20;;;;;;5117523;27;20010;-71
2022/03/14 02:46:23;;;;;;;;;;;10.00;58.60;;;;;;5136311;27;20366;-70
2022/03/14 02:48:49;;;;;;;;;;;10.00;59.10;;;;;;5116976;27;19998;-71
2022/03/14 02:51:14;;;;;;;;;;;10.00;59.40;;;;;;5117827;27;19907;-71
2022/03/14 02:53:40;;;;;;;;;;;9.90;61.10;;;;;;5134708;27;19915;-71
2022/03/14 02:56:05;;;;;;;;;;;9.90;60.80;;;;;;5136466;27;19916;-70
2022/03/14 02:58:32;;;;;;;;;;;9.90;61.20;;;;;;5136183;27;19915;-70
2022/03/14 03:00:58;;;;;;;;;;;9.90;61.40;;;;;;5135450;27;19908;-71
2022/03/14 03:03:23;;;;;;;;;;;9.90;63.00;;;;;;5136112;27;19915;-70
2022/03/14 03:05:49;;;;;;;;;;;9.90;62.60;;;;;;5135131;27;19911;-71
2022/03/14 03:08:15;;;;;;;;;;;9.90;63.10;;;;;;5136102;27;19915;-70
2022/03/14 03:10:41;;;;;;;;;;;9.80;63.90;;;;;;5135141;27;19990;-70
2022/03/14 03:13:09;;;;;;;;;;;9.90;62.30;;;;;;5135769;27;20352;-70
2022/03/14 03:15:37;;;;;;;;;;;;;;;;;;5135496;27;20025;-76
2022/03/14 03:18:02;;;;;;;;;;;9.90;61.40;;;;;;5135618;27;19954;-71
2022/03/14 03:20:28;;;;;;;;;;;9.90;61.00;;;;;;5135695;27;19942;-71
2022/03/14 03:22:54;;;;;;;;;;;9.80;60.30;;;;;;5134847;27;19935;-70
2022/03/14 03:25:19;;;;;;;;;;;9.90;60.00;;;;;;5116827;27;19942;-71
2022/03/14 03:27:45;;;;;;;;;;;9.80;58.70;;;;;;5116524;27;20389;-71
2022/03/14 03:30:10;;;;;;;;;;;9.80;58.50;;;;;;5135679;27;19911;-71
2022/03/14 03:32:36;;;;;;;;;;;;;;;;;;5135068;27;19907;-78
2022/03/14 03:35:02;;;;;;;;;;;9.70;56.80;;;;;;5135157;27;20271;-71
2022/03/14 03:37:27;;;;;;;;;;;9.70;56.80;;;;;;5135385;27;19915;-71
2022/03/14 03:39:53;;;;;;;;;;;9.70;57.10;;;;;;5134557;27;19914;-70
2022/03/14 03:42:18;;;;;;;;;;;9.70;55.90;;;;;;5116893;27;19914;-71
2022/03/14 03:44:44;;;;;;;;;;;9.60;57.70;;;;;;5134436;27;19907;-71
2022/03/14 03:47:09;;;;;;;;;;;9.60;57.10;;;;;;5135201;27;19934;-72
2022/03/14 03:49:37;;;;;;;;;;;;;;;;;;5134914;27;19929;-74
2022/03/14 03:52:03;;;;;;;;;;;9.60;54.40;;;;;;5134805;27;19931;-70
2022/03/14 03:54:29;;;;;;;;;;;;;;;;;;5135041;27;19907;-70
2022/03/14 03:56:55;;;;;;;;;;;9.60;53.40;;;;;;5116013;27;20401;-70
2022/03/14 03:59:21;;;;;;;;;;;9.60;53.70;;;;;;5116496;27;20411;-71
2022/03/14 04:01:47;;;;;;;;;;;9.60;53.50;;;;;;5134108;27;19914;-70
2022/03/14 04:04:12;;;;;;;;;;;9.60;52.70;;;;;;5134818;27;19911;-71
2022/03/14 04:06:39;;;;;;;;;;;;;;;;;;5133254;27;19912;-76
2022/03/14 04:09:06;;;;;;;;;;;9.50;54.10;;;;;;5134588;27;19907;-70
2022/03/14 04:11:31;;;;;;;;;;;9.50;55.10;;;;;;5116300;27;19907;-71
2022/03/14 04:13:58;;;;;;;;;;;9.50;57.20;;;;;;5133777;27;20555;-70
2022/03/14 04:16:27;;;;;;;;;;;9.50;57.00;;;;;;5134597;27;19907;-70
2022/03/14 04:18:53;;;;;;;;;;;9.40;58.60;;;;;;5133671;27;20391;-71
2022/03/14 04:21:18;;;;;;;;;;;9.40;60.60;;;;;;5134525;27;19949;-71
2022/03/14 04:23:44;;;;;;;;;;;9.30;62.40;;;;;;5133638;27;20013;-71
2022/03/14 04:26:09;;;;;;;;;;;9.30;62.60;;;;;;5115729;27;20402;-72
2022/03/14 04:28:36;;;;;;;;;;;9.30;65.10;;;;;;5115998;27;19907;-71
2022/03/14 04:31:05;;;;;;;;;;;9.30;65.70;;;;;;5133517;27;19907;-71
2022/03/14 04:33:31;;;;;;;;;;;9.20;67.60;;;;;;5115928;27;19930;-71
2022/03/14 04:35:57;;;;;;;;;;;;;;;;;;5133405;27;19907;-72
2022/03/14 04:38:24;;;;;;;;;;;9.20;70.10;;;;;;5115748;27;20358;-72
2022/03/14 04:40:49;;;;;;;;;;;9.10;69.80;;;;;;5133331;27;19907;-72
2022/03/14 04:43:15;;;;;;;;;;;9.20;69.20;;;;;;5115735;27;20002;-72
2022/03/14 04:45:41;;;;;;;;;;;;;;;;;;5133534;27;20367;-77
2022/03/14 04:48:07;;;;;;;;;;;9.20;71.70;;;;;;5133658;27;19921;-72
2022/03/14 04:50:34;;;;;;;;;;;9.20;72.50;;;;;;5133931;27;20002;-72
2022/03/14 04:53:00;;;;;;;;;;;9.10;74.10;;;;;;5133207;27;19903;-72
2022/03/14 04:55:25;;;;;;;;;;;9.00;76.10;;;;;;5115428;27;19922;-72
2022/03/14 04:57:51;;;;;;;;;;;8.90;77.30;;;;;;5133072;27;20080;-72
2022/03/14 05:00:17;;;;;;;;;;;9.00;77.80;;;;;;5133786;27;19907;-72
2022/03/14 05:02:43;;;;;;;;;;;;;;;;;;5133285;27;19911;-79
2022/03/14 05:05:12;;;;;;;;;;;9.00;78.10;;;;;;5133643;27;19914;-72
2022/03/14 05:07:38;;;;;;;;;;;9.00;78.50;;;;;;5133693;27;19915;-72
2022/03/14 05:10:06;;;;;;;;;;;9.00;77.50;;;;;;5132881;27;19903;-72
2022/03/14 05:12:32;;;;;;;;;;;8.90;78.20;;;;;;5115500;27;20099;-71
2022/03/14 05:14:57;;;;;;;;;;;9.00;78.40;;;;;;5133647;27;20377;-72
2022/03/14 05:17:25;;;;;;;;;;;9.00;79.60;;;;;;5114777;27;20372;-72
2022/03/14 05:19:50;;;;;;;;;;;8.90;79.30;;;;;;5132581;27;19908;-72
2022/03/14 05:22:16;;;;;;;;;;;8.90;77.60;;;;;;5133436;27;19926;-71
2022/03/14 05:24:42;;;;;;;;;;;;;;;;;;5133142;27;20293;-76
2022/03/14 05:27:08;;;;;;;;;;;9.00;76.70;;;;;;5114507;27;20001;-71
2022/03/14 08:37:58;;;;;;;;;;;9.50;60.40;;;;;;5129860;27;20276;-70
2022/03/14 08:40:25;;;;;;;;;;;9.60;59.40;;;;;;5109851;28;19919;-71
2022/03/14 08:42:51;;;;;;;;;;;9.50;58.10;;;;;;5120926;27;19918;-69
2022/03/14 08:45:17;;;;;;;;;;;9.50;57.80;;;;;;5124138;28;19907;-69
2022/03/14 08:47:43;;;;;;;;;;;9.50;55.90;;;;;;5129147;28;20248;-69
2022/03/14 08:50:09;;;;;;;;;;;9.60;54.70;;;;;;5129751;28;19907;-69
2022/03/14 08:52:35;;;;;;;;;;;;;;;;;;5112075;28;20409;-69
2022/03/14 08:55:01;;;;;;;;;;;9.70;55.70;;;;;;5104908;28;19912;-70
2022/03/14 08:57:26;;;;;;;;;;;9.70;56.20;;;;;;5111492;28;19923;-70
2022/03/14 08:59:54;;;;;;;;;;;;;;;;;;5109652;28;19908;-68
2022/03/14 09:02:19;;;;;;;;;;;9.70;54.20;;;;;;5108974;28;19908;-68
2022/03/14 09:04:45;;;;;;;;;;;9.80;50.00;;;;;;5109680;28;19946;-67
2022/03/14 09:07:11;;;;;;;;;;;9.90;45.30;;;;;;5109321;28;20323;-67
2022/03/14 09:09:36;;;;;;;;;;;10.00;43.80;;;;;;5111179;28;19960;-69
2022/03/14 09:12:03;;;;;;;;;;;9.90;45.70;;;;;;5111682;28;19995;-69
2022/03/14 09:14:30;;;;;;;;;;;10.10;45.00;;;;;;5128397;28;20371;-69
2022/03/14 09:16:56;;;;;;;;;;;;;;;;;;5129700;28;19911;-72
2022/03/14 09:19:22;;;;;;;;;;;10.10;39.60;;;;;;5129395;28;19998;-67
2022/03/14 09:21:48;;;;;;;;;;;;;;;;;;5126903;28;19908;-69
2022/03/14 09:24:14;;;;;;;;;;;;;;;;;;5125788;28;20433;-69
2022/03/14 09:26:40;;;;;;;;;;;;;;;;;;5122968;28;19916;-69
2022/03/14 09:29:06;;;;;;;;;;;;;;;;;;5125636;28;20367;-70
2022/03/14 09:31:32;;;;;;;;;;;;;;;;;;5124223;28;19916;-69
2022/03/14 09:33:58;;;;;;;;;;;;;;;;;;5110596;28;19916;-72
2022/03/14 09:36:24;;;;;;;;;;;;;;;;;;5104907;28;20037;-69
2022/03/14 09:38:50;;;;;;;;;;;;;;;;;;5105775;28;20291;-69
2022/03/14 09:41:16;;;;;;;;;;;;;;;;;;5086710;28;20432;-70
2022/03/14 09:43:42;;;;;;;;;;;;;;;;;;5105580;28;19911;-69
2022/03/14 09:46:08;;;;;;;;;;;;;;;;;;5104397;28;20345;-68
2022/03/14 09:48:36;;;;;;;;;;;;;;;;;;5109239;28;19915;-69
2022/03/14 09:51:02;;;;;;;;;;;;;;;;;;5093485;28;19911;-72
2022/03/14 09:53:28;;;;;;;;;;;;;;;;;;5112295;28;19912;-67
2022/03/14 09:55:54;;;;;;;;;;;;;;;;;;5100921;28;20434;-69
2022/03/14 09:58:20;;;;;;;;;;;10.80;16.60;;;;;;5072206;28;19916;-69
2022/03/14 10:00:47;;;;;;;;;;;10.70;17.20;;;;;;5105836;28;19911;-70
2022/03/14 10:03:13;;;;;;;;;;;10.80;18.60;;;;;;5096927;28;19970;-69
2022/03/14 10:05:39;;;;;;;;;;;11.20;18.30;;;;;;5095253;28;19916;-69
2022/03/14 10:08:05;;;;;;;;;;;11.30;15.70;;;;;;5094212;28;19957;-70
2022/03/14 10:10:31;;;;;;;;;;;11.10;15.10;;;;;;5094954;28;20360;-70
2022/03/14 10:12:57;;;;;;;;;;;11.20;15.90;;;;;;5094889;28;19915;-70
2022/03/14 10:15:32;;;;;;;;;;;10.90;9.80;;;;;;5094056;28;20085;-70
2022/03/14 10:17:58;;;;;;;;;;;10.80;12.00;;;;;;5102890;28;20352;-70
2022/03/14 10:20:24;;;;;;;;;;;10.80;12.70;;;;;;5114331;28;19926;-69
2022/03/14 10:22:50;;;;;;;;;;;10.80;13.90;;;;;;5115063;28;19912;-69
2022/03/14 10:25:19;;;;;;;;;;;10.90;12.60;;;;;;5112289;28;19962;-70
2022/03/14 10:27:57;;;;;;;;;;;10.90;6.10;;;;;;5088996;28;19908;-70
2022/03/14 10:30:22;;;;;;;;;;;10.90;1.30;;;;;;5100464;28;20434;-69
2022/03/14 10:32:48;;;;;;;;;;;11.10;2.00;;;;;;5096723;28;19908;-69
2022/03/14 10:35:19;;;;;;;;;;;11.40;1.50;;;;;;5107862;28;19919;-70
2022/03/14 10:37:57;;;;;;;;;;;11.20;1.00;;;;;;5080555;28;20318;-70
2022/03/14 10:40:27;;;;;;;;;;;11.50;1.00;;;;;;5094212;28;20459;-68
2022/03/14 10:42:53;;;;;;;;;;;;;;;;;;5114211;28;19907;-69
2022/03/14 10:45:19;;;;;;;;;;;11.70;1.00;;;;;;5113875;28;19933;-68
2022/03/14 10:47:45;;;;;;;;;;;11.60;1.00;;;;;;5114403;28;20021;-68
2022/03/14 10:50:27;;;;;;;;;;;11.90;1.00;;;;;;5104336;28;19908;-69
2022/03/14 10:52:53;;;;;;;;;;;;;;;;;;5085304;28;20322;-69
2022/03/14 10:55:18;;;;;;;;;;;11.50;1.00;;;;;;5102138;28;19908;-68
2022/03/14 10:57:44;;;;;;;;;;;;;;;;;;5081438;28;20026;-69
2022/03/14 11:00:10;;;;;;;;;;;;;;;;;;5098847;28;19920;-69
2022/03/14 11:02:36;;;;;;;;;;;11.40;1.00;;;;;;5102685;28;19909;-69
2022/03/14 11:05:05;;;;;;;;;;;;;;;;;;5083661;28;19918;-73
2022/03/14 11:07:32;;;;;;;;;;;11.20;1.00;;;;;;5103827;28;19916;-69
2022/03/14 11:09:58;;;;;;;;;;;11.30;1.00;;;;;;5091137;28;20518;-71
2022/03/14 11:12:24;;;;;;;;;;;;;;;;;;5099355;28;20449;-71
2022/03/14 11:14:54;;;;;;;;;;;11.20;1.00;;;;;;5098797;28;19916;-71
2022/03/14 11:17:27;;;;;;;;;;;11.20;1.00;;;;;;5098096;28;19920;-70
2022/03/14 11:19:54;;;;;;;;;;;;;;;;;;5098951;28;19919;-71
2022/03/14 11:22:19;;;;;;;;;;;;;;;;;;5097839;28;19912;-70
2022/03/14 11:24:45;;;;;;;;;;;;;;;;;;5108152;28;19918;-70
2022/03/14 11:27:11;;;;;;;;;;;;;;;;;;5097163;28;20383;-70
2022/03/14 11:29:37;;;;;;;;;;;;;;;;;;5092110;28;19947;-69
2022/03/14 11:32:03;;;;;;;;;;;;;;;;;;5110077;28;19912;-71
2022/03/14 11:34:30;;;;;;;;;;;;;;;;;;5091311;28;20329;-70
2022/03/14 11:36:56;;;;;;;;;;;;;;;;;;5108374;28;19928;-71
2022/03/14 11:39:22;;;;;;;;;;;11.40;1.00;;;;;;5095215;28;19989;-70
2022/03/14 11:41:48;;;;;;;;;;;;;;;;;;5102990;28;20372;-70
2022/03/14 11:44:14;;;;;;;;;;;;;;;;;;5091003;28;19912;-71
2022/03/14 11:46:40;;;;;;;;;;;;;;;;;;5091263;28;19916;-70
2022/03/14 11:49:06;;;;;;;;;;;;;;;;;;5109352;28;19947;-71
2022/03/14 11:51:37;;;;;;;;;;;11.60;1.00;;;;;;5109699;28;19950;-70
2022/03/14 11:54:03;;;;;;;;;;;;;;;;;;5109910;28;19911;-72
2022/03/14 11:56:29;;;;;;;;;;;;;;;;;;5091181;28;19922;-70
2022/03/14 11:58:58;;;;;;;;;;;;;;;;;;5109452;28;20532;-70
2022/03/14 12:01:26;;;;;;;;;;;11.70;1.00;;;;;;5090860;28;20157;-69
2022/03/14 12:03:52;;;;;;;;;;;;;;;;;;5109833;28;19919;-70
2022/03/14 12:06:18;;;;;;;;;;;;;;;;;;5108945;28;19916;-70
2022/03/14 12:08:44;;;;;;;;;;;;;;;;;;5109294;28;20355;-70
2022/03/14 12:11:10;;;;;;;;;;;;;;;;;;5084179;28;19911;-71
2022/03/14 12:13:42;;;;;;;;;;;12.10;1.00;;;;;;5076373;28;19931;-70
2022/03/14 12:16:08;;;;;;;;;;;;;;;;;;5095052;28;19935;-71
2022/03/14 12:18:34;;;;;;;;;;;;;;;;;;5098104;28;19963;-70
2022/03/14 12:21:03;;;;;;;;;;;12.00;1.00;;;;;;5088733;28;19951;-69
2022/03/14 12:23:29;;;;;;;;;;;11.80;1.00;;;;;;5088342;28;19912;-70
2022/03/14 12:25:55;;;;;;;;;;;;;;;;;;5071075;28;20602;-70
2022/03/14 12:28:33;;;;;;;;;;;11.70;1.00;;;;;;5088765;28;19912;-70
2022/03/14 12:31:12;;;;;;;;;;;11.80;1.00;;;;;;5109586;28;20387;-71
2022/03/14 12:33:39;;;;;;;;;;;11.80;1.00;;;;;;5109046;28;19998;-70
2022/03/14 12:36:05;;;;;;;;;;;;;;;;;;5109044;28;19928;-72
2022/03/14 12:38:30;;;;;;;;;;;;;;;;;;5108882;28;19954;-70
2022/03/14 12:40:56;;;;;;;;;;;;;;;;;;5109456;28;20370;-72
2022/03/14 12:43:22;;;;;;;;;;;;;;;;;;5090435;28;19908;-71
2022/03/14 12:45:48;;;;;;;;;;;;;;;;;;5090529;28;20022;-72
2022/03/14 12:48:15;;;;;;;;;;;;;;;;;;5108355;28;19912;-72
2022/03/14 12:50:41;;;;;;;;;;;;;;;;;;5109263;28;20410;-71
2022/03/14 12:53:06;;;;;;;;;;;;;;;;;;5109212;28;19912;-72
2022/03/14 12:55:32;;;;;;;;;;;;;;;;;;5108853;28;19908;-72
2022/03/14 12:57:58;;;;;;;;;;;;;;;;;;5101803;28;20231;-71
2022/03/14 13:00:25;;;;;;;;;;;11.90;1.00;;;;;;5097334;28;20615;-72
2022/03/14 13:02:51;;;;;;;;;;;;;;;;;;5091187;28;20633;-72
2022/03/14 13:05:17;;;;;;;;;;;;;;;;;;5070127;28;19947;-71
2022/03/14 13:07:43;;;;;;;;;;;;;;;;;;5088805;28;19912;-72
2022/03/14 13:10:09;;;;;;;;;;;;;;;;;;5093449;28;20053;-72
2022/03/14 13:12:35;;;;;;;;;;;;;;;;;;5088578;28;19912;-72
2022/03/14 13:15:01;;;;;;;;;;;12.00;1.00;;;;;;5070358;28;20599;-71
2022/03/14 13:17:27;;;;;;;;;;;12.00;1.00;;;;;;5091068;28;20038;-71
2022/03/14 13:19:53;;;;;;;;;;;12.00;1.00;;;;;;5092119;28;19965;-71
2022/03/14 13:22:20;;;;;;;;;;;12.00;1.00;;;;;;5098095;28;19951;-70
2022/03/14 13:24:46;;;;;;;;;;;12.10;1.00;;;;;;5081735;28;19924;-70
2022/03/14 13:27:12;;;;;;;;;;;;;;;;;;5095648;28;19915;-73
2022/03/14 13:29:40;;;;;;;;;;;12.10;1.00;;;;;;5096242;28;19912;-72
2022/03/14 13:32:06;;;;;;;;;;;;;;;;;;5107793;28;19955;-72
2022/03/14 13:34:34;;;;;;;;;;;12.30;1.00;;;;;;5094822;28;19962;-71
2022/03/14 13:37:00;;;;;;;;;;;;;;;;;;5077141;28;19924;-71
2022/03/14 13:39:28;;;;;;;;;;;12.30;1.00;;;;;;5094832;28;20449;-71
2022/03/14 13:42:00;;;;;;;;;;;12.40;1.00;;;;;;5095517;28;19916;-71
2022/03/14 13:44:26;;;;;;;;;;;12.40;1.00;;;;;;5076596;28;19915;-71
2022/03/14 13:46:52;;;;;;;;;;;12.20;1.00;;;;;;5095463;28;19911;-71
2022/03/14 13:49:19;;;;;;;;;;;;;;;;;;5095682;28;19923;-71
2022/03/14 13:51:53;;;;;;;;;;;12.30;1.00;;;;;;5114026;28;19915;-71
2022/03/14 13:54:24;;;;;;;;;;;12.20;1.00;;;;;;5096599;28;19915;-71
2022/03/14 13:56:52;;;;;;;;;;;12.20;1.00;;;;;;5097303;28;20334;-71
2022/03/14 13:59:27;;;;;;;;;;;12.10;1.00;;;;;;5114226;28;20363;-72
2022/03/14 14:02:02;;;;;;;;;;;11.90;1.00;;;;;;5099085;28;19927;-70
2022/03/14 14:04:35;;;;;;;;;;;12.10;1.00;;;;;;5094189;28;19908;-71
2022/03/14 14:07:01;;;;;;;;;;;11.90;1.00;;;;;;5077207;28;19920;-71
2022/03/14 14:09:27;;;;;;;;;;;;;;;;;;5089628;28;19916;-72
2022/03/14 14:11:58;;;;;;;;;;;12.00;1.00;;;;;;5073461;28;19965;-71
2022/03/14 14:14:24;;;;;;;;;;;;;;;;;;5092810;28;19919;-71
2022/03/14 14:16:51;;;;;;;;;;;;;;;;;;5084313;28;19923;-72
2022/03/14 14:19:17;;;;;;;;;;;;;;;;;;5091666;28;19961;-71
2022/03/14 14:21:43;;;;;;;;;;;;;;;;;;5093067;28;19915;-72
2022/03/14 14:24:08;;;;;;;;;;;;;;;;;;5111802;28;19908;-71
2022/03/14 14:26:34;;;;;;;;;;;12.10;1.00;;;;;;5080164;28;19934;-70
2022/03/14 14:29:00;;;;;;;;;;;;;;;;;;5091386;28;19919;-71
2022/03/14 14:31:26;;;;;;;;;;;;;;;;;;5090057;28;19921;-71
2022/03/14 14:33:52;;;;;;;;;;;;;;;;;;5091314;28;19931;-71
2022/03/14 14:36:18;;;;;;;;;;;;;;;;;;5090061;28;19977;-70
2022/03/14 14:38:44;;;;;;;;;;;;;;;;;;5091133;28;20288;-72
2022/03/14 14:41:12;;;;;;;;;;;;;;;;;;5091053;28;19919;-71
2022/03/14 14:43:39;;;;;;;;;;;;;;;;;;5089956;28;20399;-71
2022/03/14 14:46:05;;;;;;;;;;;12.60;1.00;;;;;;5072748;28;19908;-71
2022/03/14 14:48:32;;;;;;;;;;;13.60;1.00;;;;;;5102873;28;19912;-72
2022/03/14 14:50:58;;;;;;;;;;;;;;;;;;5111275;28;19934;-73
2022/03/14 14:53:24;;;;;;;;;;;;;;;;;;5092056;28;20380;-71
2022/03/14 14:55:50;;;;;;;;;;;12.70;1.00;;;;;;5111303;28;20399;-71
2022/03/14 14:58:16;;;;;;;;;;;;;;;;;;5111830;28;19916;-74
2022/03/14 15:00:43;;;;;;;;;;;12.90;1.00;;;;;;5103947;28;19947;-70
2022/03/14 15:03:09;;;;;;;;;;;;;;;;;;5099628;28;19916;-71
2022/03/14 15:05:35;;;;;;;;;;;13.30;1.00;;;;;;5105169;28;20103;-71
2022/03/14 15:08:01;;;;;;;;;;;13.70;1.00;;;;;;5114212;28;19908;-70
2022/03/14 15:10:27;;;;;;;;;;;;;;;;;;5113344;28;19919;-70
2022/03/14 15:12:53;;;;;;;;;;;;;;;;;;5113909;28;20256;-70
2022/03/14 15:15:18;;;;;;;;;;;14.50;1.00;;;;;;5113285;28;19938;-70
2022/03/14 15:17:44;;;;;;;;;;;;;;;;;;5113886;28;19912;-70
2022/03/14 15:20:11;;;;;;;;;;;13.80;1.00;;;;;;5114110;28;19912;-70
2022/03/14 15:22:38;;;;;;;;;;;14.70;1.00;;;;;;5113196;28;19910;-71
2022/03/14 15:25:04;;;;;;;;;;;14.80;1.00;;;;;;5113790;28;19908;-69
2022/03/14 15:27:30;;;;;;;;;;;14.60;1.00;;;;;;5112970;28;20003;-71
2022/03/14 15:29:56;;;;;;;;;;;13.70;1.00;;;;;;5113735;28;19908;-70
2022/03/14 15:32:22;;;;;;;;;;;13.30;1.00;;;;;;5113149;28;19907;-70
2022/03/14 15:34:48;;;;;;;;;;;;;;;;;;5113717;28;20317;-70
2022/03/14 15:37:14;;;;;;;;;;;14.70;1.00;;;;;;5091727;28;19928;-69
2022/03/14 15:39:40;;;;;;;;;;;14.90;1.00;;;;;;5092805;28;19920;-70
2022/03/14 15:42:13;;;;;;;;;;;16.00;1.00;;;;;;5091974;28;19914;-70
2022/03/14 15:44:39;;;;;;;;;;;15.20;1.00;;;;;;5091220;28;20091;-70
2022/03/14 15:47:04;;;;;;;;;;;14.60;1.00;;;;;;5092670;28;19943;-70
2022/03/14 15:49:30;;;;;;;;;;;;;;;;;;5092385;28;19919;-71
2022/03/14 15:51:57;;;;;;;;;;;13.80;1.00;;;;;;5093151;28;19908;-70
2022/03/14 15:54:22;;;;;;;;;;;13.90;1.00;;;;;;5092365;28;19908;-70
2022/03/14 15:56:48;;;;;;;;;;;;;;;;;;5088793;28;20403;-70
2022/03/14 15:59:14;;;;;;;;;;;14.80;1.00;;;;;;5090895;28;19908;-70
2022/03/14 16:01:39;;;;;;;;;;;14.60;1.00;;;;;;5092140;28;19908;-69
2022/03/14 16:04:05;;;;;;;;;;;14.00;1.00;;;;;;5092873;28;19958;-69
2022/03/14 16:06:34;;;;;;;;;;;14.00;1.00;;;;;;5092050;28;19924;-68
2022/03/14 16:09:00;;;;;;;;;;;;;;;;;;5092735;28;19933;-68
2022/03/14 16:11:25;;;;;;;;;;;14.20;1.00;;;;;;5091974;28;20022;-68
2022/03/14 16:13:51;;;;;;;;;;;14.30;1.00;;;;;;5092808;28;19947;-69
2022/03/14 16:16:17;;;;;;;;;;;14.30;1.00;;;;;;5092582;28;19913;-68
2022/03/14 16:18:43;;;;;;;;;;;14.60;1.00;;;;;;5089405;28;19927;-69
2022/03/14 16:21:09;;;;;;;;;;;15.00;1.00;;;;;;5078067;28;20365;-69
2022/03/14 16:23:35;;;;;;;;;;;14.80;1.00;;;;;;5082119;28;19977;-69
2022/03/14 16:26:00;;;;;;;;;;;14.70;1.00;;;;;;5072367;28;20372;-69
2022/03/14 16:28:26;;;;;;;;;;;14.70;1.00;;;;;;5074448;28;19912;-62
2022/03/14 16:30:52;;;;;;;;;;;14.60;1.00;;;;;;5072176;28;19954;-69
2022/03/14 16:33:17;;;;;;;;;;;14.20;1.00;;;;;;5072010;28;19940;-69
2022/03/14 16:35:43;;;;;;;;;;;14.40;1.00;;;;;;5075152;28;19924;-69
2022/03/14 16:38:08;;;;;;;;;;;14.70;1.00;;;;;;5092151;28;19974;-72
2022/03/14 16:40:34;;;;;;;;;;;14.30;1.00;;;;;;5091532;28;19915;-70
2022/03/14 16:43:00;;;;;;;;;;;14.30;1.00;;;;;;5092094;28;19920;-70
2022/03/14 16:45:26;;;;;;;;;;;14.30;1.00;;;;;;5091515;28;20276;-70
2022/03/14 16:47:52;;;;;;;;;;;14.30;1.00;;;;;;5099518;28;19907;-70
2022/03/14 16:50:18;;;;;;;;;;;14.40;1.00;;;;;;5112679;28;19915;-70
2022/03/14 16:52:44;;;;;;;;;;;14.20;1.00;;;;;;5111845;28;19922;-70
2022/03/14 16:55:10;;;;;;;;;;;14.00;1.00;;;;;;5112881;28;19908;-70
2022/03/14 16:57:37;;;;;;;;;;;14.10;1.00;;;;;;5112605;28;19938;-69
2022/03/14 17:00:04;;;;;;;;;;;14.10;1.00;;;;;;5117028;28;19912;-69
2022/03/14 17:02:29;;;;;;;;;;;13.90;1.00;;;;;;5097631;28;19915;-69
2022/03/14 17:04:55;;;;;;;;;;;13.90;1.00;;;;;;5116635;28;19908;-69
2022/03/14 17:07:21;;;;;;;;;;;;;;;;;;5098441;28;19915;-73
2022/03/14 17:09:46;;;;;;;;;;;13.60;1.00;;;;;;5116025;28;19961;-70
2022/03/14 17:12:13;;;;;;;;;;;13.60;1.00;;;;;;5116571;28;19907;-70
2022/03/14 17:14:38;;;;;;;;;;;13.40;1.00;;;;;;5115679;28;19912;-70
2022/03/14 17:17:05;;;;;;;;;;;13.40;1.00;;;;;;5116408;28;19921;-70
2022/03/14 17:19:31;;;;;;;;;;;;;;;;;;5115438;28;19937;-70
2022/03/14 17:21:57;;;;;;;;;;;13.00;1.00;;;;;;5116498;28;19911;-70
2022/03/14 17:24:23;;;;;;;;;;;;;;;;;;5116063;28;19907;-73
2022/03/14 17:26:48;;;;;;;;;;;12.90;1.00;;;;;;5115792;28;19908;-69
2022/03/14 17:29:14;;;;;;;;;;;12.70;1.00;;;;;;5116166;28;20356;-71
2022/03/14 17:31:39;;;;;;;;;;;12.60;1.00;;;;;;5115419;28;20351;-69
2022/03/14 17:34:05;;;;;;;;;;;12.70;1.00;;;;;;5116123;28;19908;-73
2022/03/14 17:36:30;;;;;;;;;;;12.60;1.00;;;;;;5114925;28;19927;-74
2022/03/14 17:38:56;;;;;;;;;;;12.50;1.00;;;;;;5116222;28;20006;-72
2022/03/14 17:41:21;;;;;;;;;;;12.60;1.00;;;;;;5115929;28;19977;-69
2022/03/14 17:43:47;;;;;;;;;;;12.70;1.00;;;;;;5096863;28;19908;-70
2022/03/14 17:46:13;;;;;;;;;;;12.80;1.00;;;;;;5115912;28;20420;-72
2022/03/14 17:48:38;;;;;;;;;;;13.40;1.00;;;;;;5114871;28;19908;-70
2022/03/14 17:51:04;;;;;;;;;;;14.00;1.00;;;;;;5115741;28;19957;-70
2022/03/14 17:53:30;;;;;;;;;;;13.90;1.00;;;;;;5096694;28;19908;-71
2022/03/14 17:55:56;;;;;;;;;;;13.30;1.00;;;;;;5115664;28;19919;-67
2022/03/14 17:58:24;;;;;;;;;;;12.80;1.00;;;;;;5115654;28;19908;-68
2022/03/14 18:00:49;;;;;;;;;;;12.70;1.00;;;;;;5096856;28;19950;-68
2022/03/14 18:03:15;;;;;;;;;;;12.50;1.00;;;;;;5115534;28;19950;-69
2022/03/14 18:05:41;;;;;;;;;;;12.20;1.00;;;;;;5114773;28;19963;-73